sensor_id;sensor_type;location;lat;lon;timestamp;P1;durP1;ratioP1;P2;durP2;ratioP2
61915;SDS011;47868;51.326;6.550;2023-02-26T00:01:42;14.07;;;4.00;;
61915;SDS011;47868;51.326;6.550;2023-02-26T00:04:08;8.37;;;4.23;;
61915;SDS011;47868;51.326;6.550;2023-02-26T00:06:35;11.30;;;3.77;;
61915;SDS011;47868;51.326;6.550;2023-02-26T00:09:02;9.63;;;3.60;;
61915;SDS011;47868;51.326;6.550;2023-02-26T00:11:29;8.03;;;3.20;;
61915;SDS011;47868;51.326;6.550;2023-02-26T00:13:55;6.18;;;2.95;;
61915;SDS011;47868;51.326;6.550;2023-02-26T00:16:39;8.82;;;2.80;;
61915;SDS011;47868;51.326;6.550;2023-02-26T00:19:06;11.30;;;2.90;;
61915;SDS011;47868;51.326;6.550;2023-02-26T00:21:32;5.70;;;2.72;;
61915;SDS011;47868;51.326;6.550;2023-02-26T00:23:59;11.68;;;2.85;;
61915;SDS011;47868;51.326;6.550;2023-02-26T00:26:26;5.30;;;2.85;;
61915;SDS011;47868;51.326;6.550;2023-02-26T00:28:53;6.43;;;3.00;;
61915;SDS011;47868;51.326;6.550;2023-02-26T00:31:20;8.23;;;3.20;;
61915;SDS011;47868;51.326;6.550;2023-02-26T00:33:48;6.22;;;2.80;;
61915;SDS011;47868;51.326;6.550;2023-02-26T00:36:28;7.53;;;3.13;;
61915;SDS011;47868;51.326;6.550;2023-02-26T00:41:23;5.20;;;2.47;;
61915;SDS011;47868;51.326;6.550;2023-02-26T00:43:49;8.60;;;2.83;;
61915;SDS011;47868;51.326;6.550;2023-02-26T00:46:26;4.97;;;2.73;;
61915;SDS011;47868;51.326;6.550;2023-02-26T00:48:54;6.23;;;2.90;;
61915;SDS011;47868;51.326;6.550;2023-02-26T00:56:40;5.60;;;2.78;;
61915;SDS011;47868;51.326;6.550;2023-02-26T00:59:06;8.52;;;3.13;;
61915;SDS011;47868;51.326;6.550;2023-02-26T01:01:32;4.30;;;2.50;;
61915;SDS011;47868;51.326;6.550;2023-02-26T01:03:58;7.80;;;3.13;;
61915;SDS011;47868;51.326;6.550;2023-02-26T01:06:25;8.37;;;3.10;;
61915;SDS011;47868;51.326;6.550;2023-02-26T01:11:37;4.90;;;2.80;;
61915;SDS011;47868;51.326;6.550;2023-02-26T01:14:04;12.20;;;3.00;;
61915;SDS011;47868;51.326;6.550;2023-02-26T01:16:32;5.75;;;2.45;;
61915;SDS011;47868;51.326;6.550;2023-02-26T01:19:07;6.03;;;2.40;;
61915;SDS011;47868;51.326;6.550;2023-02-26T01:21:38;6.70;;;2.70;;
61915;SDS011;47868;51.326;6.550;2023-02-26T01:24:08;7.18;;;2.42;;
61915;SDS011;47868;51.326;6.550;2023-02-26T01:26:36;4.43;;;2.50;;
61915;SDS011;47868;51.326;6.550;2023-02-26T01:29:02;4.57;;;2.42;;
61915;SDS011;47868;51.326;6.550;2023-02-26T01:31:31;7.57;;;2.80;;
61915;SDS011;47868;51.326;6.550;2023-02-26T01:34:04;7.83;;;2.63;;
61915;SDS011;47868;51.326;6.550;2023-02-26T01:36:32;5.73;;;2.23;;
61915;SDS011;47868;51.326;6.550;2023-02-26T01:41:55;5.80;;;2.20;;
61915;SDS011;47868;51.326;6.550;2023-02-26T01:49:17;5.43;;;2.70;;
61915;SDS011;47868;51.326;6.550;2023-02-26T01:51:47;6.93;;;2.90;;
61915;SDS011;47868;51.326;6.550;2023-02-26T01:54:14;8.07;;;2.57;;
61915;SDS011;47868;51.326;6.550;2023-02-26T01:56:41;7.37;;;2.80;;
61915;SDS011;47868;51.326;6.550;2023-02-26T01:59:09;6.37;;;2.77;;
61915;SDS011;47868;51.326;6.550;2023-02-26T02:01:36;7.33;;;2.80;;
61915;SDS011;47868;51.326;6.550;2023-02-26T02:04:04;9.32;;;2.75;;
61915;SDS011;47868;51.326;6.550;2023-02-26T02:06:31;7.57;;;2.50;;
61915;SDS011;47868;51.326;6.550;2023-02-26T02:08:57;4.23;;;2.40;;
61915;SDS011;47868;51.326;6.550;2023-02-26T02:11:23;6.57;;;2.60;;
61915;SDS011;47868;51.326;6.550;2023-02-26T02:21:50;4.70;;;2.47;;
61915;SDS011;47868;51.326;6.550;2023-02-26T02:24:33;4.57;;;2.50;;
61915;SDS011;47868;51.326;6.550;2023-02-26T02:27:09;6.53;;;2.70;;
61915;SDS011;47868;51.326;6.550;2023-02-26T02:34:52;6.80;;;2.20;;
61915;SDS011;47868;51.326;6.550;2023-02-26T02:37:21;3.97;;;2.70;;
61915;SDS011;47868;51.326;6.550;2023-02-26T02:40:00;4.10;;;2.57;;
61915;SDS011;47868;51.326;6.550;2023-02-26T02:42:46;4.37;;;2.30;;
61915;SDS011;47868;51.326;6.550;2023-02-26T02:47:40;8.97;;;2.47;;
61915;SDS011;47868;51.326;6.550;2023-02-26T02:52:53;5.83;;;2.40;;
61915;SDS011;47868;51.326;6.550;2023-02-26T02:55:26;6.90;;;2.53;;
61915;SDS011;47868;51.326;6.550;2023-02-26T02:58:03;5.37;;;2.33;;
61915;SDS011;47868;51.326;6.550;2023-02-26T03:00:30;3.67;;;2.50;;
61915;SDS011;47868;51.326;6.550;2023-02-26T03:03:04;3.57;;;2.17;;
61915;SDS011;47868;51.326;6.550;2023-02-26T03:05:31;7.67;;;2.40;;
61915;SDS011;47868;51.326;6.550;2023-02-26T03:07:59;6.33;;;2.00;;
61915;SDS011;47868;51.326;6.550;2023-02-26T03:10:26;4.53;;;2.10;;
61915;SDS011;47868;51.326;6.550;2023-02-26T03:12:52;5.60;;;2.10;;
61915;SDS011;47868;51.326;6.550;2023-02-26T03:15:22;4.70;;;2.03;;
61915;SDS011;47868;51.326;6.550;2023-02-26T03:17:53;7.97;;;2.10;;
61915;SDS011;47868;51.326;6.550;2023-02-26T03:20:25;4.23;;;2.10;;
61915;SDS011;47868;51.326;6.550;2023-02-26T03:23:00;5.77;;;2.40;;
61915;SDS011;47868;51.326;6.550;2023-02-26T03:25:41;5.43;;;2.10;;
61915;SDS011;47868;51.326;6.550;2023-02-26T03:30:39;4.57;;;2.33;;
61915;SDS011;47868;51.326;6.550;2023-02-26T03:33:09;4.50;;;2.57;;
61915;SDS011;47868;51.326;6.550;2023-02-26T03:36:12;5.27;;;2.10;;
61915;SDS011;47868;51.326;6.550;2023-02-26T03:41:09;5.37;;;2.30;;
61915;SDS011;47868;51.326;6.550;2023-02-26T03:46:04;7.30;;;2.10;;
61915;SDS011;47868;51.326;6.550;2023-02-26T03:48:31;5.93;;;2.27;;
61915;SDS011;47868;51.326;6.550;2023-02-26T03:51:00;8.17;;;2.27;;
61915;SDS011;47868;51.326;6.550;2023-02-26T03:53:31;6.17;;;2.50;;
61915;SDS011;47868;51.326;6.550;2023-02-26T03:56:03;6.40;;;2.80;;
61915;SDS011;47868;51.326;6.550;2023-02-26T03:58:30;4.53;;;2.30;;
61915;SDS011;47868;51.326;6.550;2023-02-26T04:01:03;5.60;;;2.33;;
61915;SDS011;47868;51.326;6.550;2023-02-26T04:03:35;5.87;;;2.00;;
61915;SDS011;47868;51.326;6.550;2023-02-26T04:06:03;9.30;;;3.03;;
61915;SDS011;47868;51.326;6.550;2023-02-26T04:08:29;6.17;;;2.20;;
61915;SDS011;47868;51.326;6.550;2023-02-26T04:10:59;4.17;;;2.37;;
61915;SDS011;47868;51.326;6.550;2023-02-26T04:13:30;8.93;;;2.50;;
61915;SDS011;47868;51.326;6.550;2023-02-26T04:15:56;6.43;;;2.23;;
61915;SDS011;47868;51.326;6.550;2023-02-26T04:18:22;8.43;;;2.40;;
61915;SDS011;47868;51.326;6.550;2023-02-26T04:20:48;8.70;;;2.67;;
61915;SDS011;47868;51.326;6.550;2023-02-26T04:23:14;4.33;;;2.17;;
61915;SDS011;47868;51.326;6.550;2023-02-26T04:25:40;4.70;;;2.40;;
61915;SDS011;47868;51.326;6.550;2023-02-26T04:28:06;6.17;;;2.80;;
61915;SDS011;47868;51.326;6.550;2023-02-26T04:30:32;7.83;;;2.20;;
61915;SDS011;47868;51.326;6.550;2023-02-26T04:32:58;4.23;;;2.77;;
61915;SDS011;47868;51.326;6.550;2023-02-26T04:35:24;4.50;;;2.53;;
61915;SDS011;47868;51.326;6.550;2023-02-26T04:37:50;4.13;;;1.80;;
61915;SDS011;47868;51.326;6.550;2023-02-26T04:40:16;5.07;;;2.23;;
61915;SDS011;47868;51.326;6.550;2023-02-26T04:42:42;5.00;;;1.80;;
61915;SDS011;47868;51.326;6.550;2023-02-26T04:45:08;6.57;;;2.27;;
61915;SDS011;47868;51.326;6.550;2023-02-26T04:47:34;7.00;;;2.47;;
61915;SDS011;47868;51.326;6.550;2023-02-26T04:50:00;4.27;;;2.20;;
61915;SDS011;47868;51.326;6.550;2023-02-26T04:52:26;4.40;;;1.90;;
61915;SDS011;47868;51.326;6.550;2023-02-26T04:54:52;5.13;;;2.20;;
61915;SDS011;47868;51.326;6.550;2023-02-26T04:57:18;2.63;;;1.87;;
61915;SDS011;47868;51.326;6.550;2023-02-26T04:59:44;5.23;;;1.90;;
61915;SDS011;47868;51.326;6.550;2023-02-26T05:02:11;4.80;;;1.80;;
61915;SDS011;47868;51.326;6.550;2023-02-26T05:04:37;3.37;;;1.80;;
61915;SDS011;47868;51.326;6.550;2023-02-26T05:07:03;3.43;;;1.90;;
61915;SDS011;47868;51.326;6.550;2023-02-26T05:09:29;7.43;;;1.90;;
61915;SDS011;47868;51.326;6.550;2023-02-26T05:11:55;6.83;;;2.20;;
61915;SDS011;47868;51.326;6.550;2023-02-26T05:14:21;3.63;;;2.10;;
61915;SDS011;47868;51.326;6.550;2023-02-26T05:16:47;4.53;;;2.37;;
61915;SDS011;47868;51.326;6.550;2023-02-26T05:19:13;5.57;;;2.33;;
61915;SDS011;47868;51.326;6.550;2023-02-26T05:21:39;4.10;;;2.10;;
61915;SDS011;47868;51.326;6.550;2023-02-26T05:24:05;4.13;;;2.53;;
61915;SDS011;47868;51.326;6.550;2023-02-26T05:26:31;6.03;;;2.53;;
61915;SDS011;47868;51.326;6.550;2023-02-26T05:28:57;7.17;;;2.03;;
61915;SDS011;47868;51.326;6.550;2023-02-26T05:31:23;5.80;;;2.10;;
61915;SDS011;47868;51.326;6.550;2023-02-26T05:33:50;7.07;;;2.03;;
61915;SDS011;47868;51.326;6.550;2023-02-26T05:36:16;3.50;;;2.00;;
61915;SDS011;47868;51.326;6.550;2023-02-26T05:38:42;7.30;;;2.20;;
61915;SDS011;47868;51.326;6.550;2023-02-26T05:41:08;4.30;;;2.07;;
61915;SDS011;47868;51.326;6.550;2023-02-26T05:43:34;6.07;;;2.20;;
61915;SDS011;47868;51.326;6.550;2023-02-26T05:46:00;7.53;;;2.10;;
61915;SDS011;47868;51.326;6.550;2023-02-26T05:48:27;10.60;;;2.37;;
61915;SDS011;47868;51.326;6.550;2023-02-26T05:50:53;7.00;;;2.00;;
61915;SDS011;47868;51.326;6.550;2023-02-26T05:53:19;5.47;;;2.50;;
61915;SDS011;47868;51.326;6.550;2023-02-26T05:55:44;5.60;;;2.07;;
61915;SDS011;47868;51.326;6.550;2023-02-26T05:58:10;3.97;;;2.10;;
61915;SDS011;47868;51.326;6.550;2023-02-26T06:00:37;4.40;;;1.95;;
61915;SDS011;47868;51.326;6.550;2023-02-26T06:03:03;5.53;;;2.70;;
61915;SDS011;47868;51.326;6.550;2023-02-26T06:05:30;4.07;;;2.10;;
61915;SDS011;47868;51.326;6.550;2023-02-26T06:07:56;2.57;;;1.83;;
61915;SDS011;47868;51.326;6.550;2023-02-26T06:10:22;2.53;;;2.00;;
61915;SDS011;47868;51.326;6.550;2023-02-26T06:12:48;5.33;;;2.60;;
61915;SDS011;47868;51.326;6.550;2023-02-26T06:15:14;6.47;;;2.13;;
61915;SDS011;47868;51.326;6.550;2023-02-26T06:17:40;7.83;;;2.20;;
61915;SDS011;47868;51.326;6.550;2023-02-26T06:20:06;4.30;;;2.00;;
61915;SDS011;47868;51.326;6.550;2023-02-26T06:22:32;6.77;;;2.00;;
61915;SDS011;47868;51.326;6.550;2023-02-26T06:24:58;4.63;;;1.80;;
61915;SDS011;47868;51.326;6.550;2023-02-26T06:27:24;5.77;;;2.27;;
61915;SDS011;47868;51.326;6.550;2023-02-26T06:29:50;3.87;;;2.00;;
61915;SDS011;47868;51.326;6.550;2023-02-26T06:32:16;6.70;;;2.27;;
61915;SDS011;47868;51.326;6.550;2023-02-26T06:34:42;5.83;;;2.23;;
61915;SDS011;47868;51.326;6.550;2023-02-26T06:37:08;4.90;;;2.30;;
61915;SDS011;47868;51.326;6.550;2023-02-26T06:39:34;5.20;;;2.10;;
61915;SDS011;47868;51.326;6.550;2023-02-26T06:42:00;4.10;;;1.80;;
61915;SDS011;47868;51.326;6.550;2023-02-26T06:44:26;4.03;;;2.00;;
61915;SDS011;47868;51.326;6.550;2023-02-26T06:46:52;4.00;;;2.40;;
61915;SDS011;47868;51.326;6.550;2023-02-26T06:49:18;3.57;;;1.80;;
61915;SDS011;47868;51.326;6.550;2023-02-26T06:51:44;4.50;;;2.13;;
61915;SDS011;47868;51.326;6.550;2023-02-26T06:54:10;2.37;;;2.03;;
61915;SDS011;47868;51.326;6.550;2023-02-26T06:56:36;9.43;;;3.77;;
61915;SDS011;47868;51.326;6.550;2023-02-26T06:59:01;4.17;;;2.67;;
61915;SDS011;47868;51.326;6.550;2023-02-26T07:01:27;3.87;;;2.30;;
61915;SDS011;47868;51.326;6.550;2023-02-26T07:03:55;7.23;;;3.23;;
61915;SDS011;47868;51.326;6.550;2023-02-26T07:06:22;7.27;;;2.40;;
61915;SDS011;47868;51.326;6.550;2023-02-26T07:08:48;6.33;;;3.17;;
61915;SDS011;47868;51.326;6.550;2023-02-26T07:11:14;6.20;;;3.00;;
61915;SDS011;47868;51.326;6.550;2023-02-26T07:13:40;12.03;;;5.57;;
61915;SDS011;47868;51.326;6.550;2023-02-26T07:16:06;9.83;;;3.97;;
61915;SDS011;47868;51.326;6.550;2023-02-26T07:18:32;6.80;;;3.17;;
61915;SDS011;47868;51.326;6.550;2023-02-26T07:20:59;9.87;;;3.57;;
61915;SDS011;47868;51.326;6.550;2023-02-26T07:23:25;5.17;;;2.90;;
61915;SDS011;47868;51.326;6.550;2023-02-26T07:25:51;5.40;;;3.17;;
61915;SDS011;47868;51.326;6.550;2023-02-26T07:28:17;5.87;;;3.13;;
61915;SDS011;47868;51.326;6.550;2023-02-26T07:30:44;7.00;;;2.90;;
61915;SDS011;47868;51.326;6.550;2023-02-26T07:33:10;5.30;;;3.10;;
61915;SDS011;47868;51.326;6.550;2023-02-26T07:35:36;5.43;;;2.80;;
61915;SDS011;47868;51.326;6.550;2023-02-26T07:38:03;7.20;;;2.70;;
61915;SDS011;47868;51.326;6.550;2023-02-26T07:40:29;5.90;;;2.87;;
61915;SDS011;47868;51.326;6.550;2023-02-26T07:42:55;5.57;;;2.57;;
61915;SDS011;47868;51.326;6.550;2023-02-26T07:45:21;4.57;;;2.20;;
61915;SDS011;47868;51.326;6.550;2023-02-26T07:47:47;4.70;;;2.50;;
61915;SDS011;47868;51.326;6.550;2023-02-26T07:50:14;5.23;;;2.43;;
61915;SDS011;47868;51.326;6.550;2023-02-26T07:52:40;6.53;;;3.03;;
61915;SDS011;47868;51.326;6.550;2023-02-26T07:55:06;5.83;;;2.67;;
61915;SDS011;47868;51.326;6.550;2023-02-26T07:57:32;4.47;;;2.50;;
61915;SDS011;47868;51.326;6.550;2023-02-26T07:59:58;11.20;;;2.43;;
61915;SDS011;47868;51.326;6.550;2023-02-26T08:02:24;7.93;;;2.60;;
61915;SDS011;47868;51.326;6.550;2023-02-26T08:04:50;5.37;;;2.60;;
61915;SDS011;47868;51.326;6.550;2023-02-26T08:07:16;5.27;;;2.30;;
61915;SDS011;47868;51.326;6.550;2023-02-26T08:09:42;8.47;;;3.20;;
61915;SDS011;47868;51.326;6.550;2023-02-26T08:12:08;12.07;;;3.50;;
61915;SDS011;47868;51.326;6.550;2023-02-26T08:14:34;7.93;;;2.93;;
61915;SDS011;47868;51.326;6.550;2023-02-26T08:17:00;9.17;;;4.13;;
61915;SDS011;47868;51.326;6.550;2023-02-26T08:19:26;4.93;;;3.17;;
61915;SDS011;47868;51.326;6.550;2023-02-26T08:21:52;7.70;;;3.00;;
61915;SDS011;47868;51.326;6.550;2023-02-26T08:24:20;5.93;;;2.90;;
61915;SDS011;47868;51.326;6.550;2023-02-26T08:26:46;8.67;;;3.30;;
61915;SDS011;47868;51.326;6.550;2023-02-26T08:29:12;7.07;;;2.60;;
61915;SDS011;47868;51.326;6.550;2023-02-26T08:31:39;4.93;;;2.97;;
61915;SDS011;47868;51.326;6.550;2023-02-26T08:34:05;4.73;;;2.57;;
61915;SDS011;47868;51.326;6.550;2023-02-26T08:36:31;5.97;;;3.13;;
61915;SDS011;47868;51.326;6.550;2023-02-26T08:38:57;4.87;;;2.50;;
61915;SDS011;47868;51.326;6.550;2023-02-26T08:41:23;4.80;;;3.00;;
61915;SDS011;47868;51.326;6.550;2023-02-26T08:43:51;4.03;;;2.10;;
61915;SDS011;47868;51.326;6.550;2023-02-26T08:46:17;4.70;;;2.17;;
61915;SDS011;47868;51.326;6.550;2023-02-26T08:48:43;4.80;;;2.60;;
61915;SDS011;47868;51.326;6.550;2023-02-26T08:51:09;7.60;;;2.70;;
61915;SDS011;47868;51.326;6.550;2023-02-26T08:53:35;7.33;;;2.20;;
61915;SDS011;47868;51.326;6.550;2023-02-26T08:56:01;6.97;;;2.37;;
61915;SDS011;47868;51.326;6.550;2023-02-26T08:58:27;2.67;;;2.27;;
61915;SDS011;47868;51.326;6.550;2023-02-26T09:00:53;8.10;;;2.40;;
61915;SDS011;47868;51.326;6.550;2023-02-26T09:03:19;4.93;;;2.97;;
61915;SDS011;47868;51.326;6.550;2023-02-26T09:05:45;2.97;;;2.20;;
61915;SDS011;47868;51.326;6.550;2023-02-26T09:08:11;6.40;;;1.90;;
61915;SDS011;47868;51.326;6.550;2023-02-26T09:10:39;5.50;;;2.23;;
61915;SDS011;47868;51.326;6.550;2023-02-26T09:13:06;5.27;;;2.23;;
61915;SDS011;47868;51.326;6.550;2023-02-26T09:15:32;3.80;;;2.03;;
61915;SDS011;47868;51.326;6.550;2023-02-26T09:17:58;3.53;;;2.17;;
61915;SDS011;47868;51.326;6.550;2023-02-26T09:20:24;3.37;;;1.80;;
61915;SDS011;47868;51.326;6.550;2023-02-26T09:22:51;4.80;;;1.63;;
61915;SDS011;47868;51.326;6.550;2023-02-26T09:25:18;3.00;;;2.20;;
61915;SDS011;47868;51.326;6.550;2023-02-26T09:27:44;2.60;;;1.60;;
61915;SDS011;47868;51.326;6.550;2023-02-26T09:30:10;5.03;;;1.80;;
61915;SDS011;47868;51.326;6.550;2023-02-26T09:32:36;2.63;;;1.67;;
61915;SDS011;47868;51.326;6.550;2023-02-26T09:35:03;4.30;;;1.80;;
61915;SDS011;47868;51.326;6.550;2023-02-26T09:37:29;2.80;;;1.70;;
61915;SDS011;47868;51.326;6.550;2023-02-26T09:39:55;3.23;;;1.83;;
61915;SDS011;47868;51.326;6.550;2023-02-26T09:45:09;6.53;;;2.40;;
61915;SDS011;47868;51.326;6.550;2023-02-26T09:47:42;5.43;;;2.03;;
61915;SDS011;47868;51.326;6.550;2023-02-26T09:52:48;7.22;;;1.70;;
61915;SDS011;47868;51.326;6.550;2023-02-26T09:57:45;10.30;;;2.10;;
61915;SDS011;47868;51.326;6.550;2023-02-26T10:00:35;3.95;;;1.73;;
61915;SDS011;47868;51.326;6.550;2023-02-26T10:08:35;4.03;;;1.48;;
61915;SDS011;47868;51.326;6.550;2023-02-26T10:11:03;6.07;;;1.63;;
61915;SDS011;47868;51.326;6.550;2023-02-26T10:13:34;3.30;;;1.73;;
61915;SDS011;47868;51.326;6.550;2023-02-26T10:16:04;4.25;;;1.70;;
61915;SDS011;47868;51.326;6.550;2023-02-26T10:18:33;4.65;;;1.50;;
61915;SDS011;47868;51.326;6.550;2023-02-26T10:21:14;3.08;;;1.80;;
61915;SDS011;47868;51.326;6.550;2023-02-26T10:31:21;3.03;;;1.80;;
61915;SDS011;47868;51.326;6.550;2023-02-26T10:33:53;4.40;;;1.73;;
61915;SDS011;47868;51.326;6.550;2023-02-26T10:38:48;4.03;;;2.00;;
61915;SDS011;47868;51.326;6.550;2023-02-26T10:41:17;4.30;;;1.80;;
61915;SDS011;47868;51.326;6.550;2023-02-26T10:43:48;3.67;;;2.83;;
61915;SDS011;47868;51.326;6.550;2023-02-26T10:48:49;3.63;;;1.73;;
61915;SDS011;47868;51.326;6.550;2023-02-26T10:51:19;3.97;;;1.75;;
61915;SDS011;47868;51.326;6.550;2023-02-26T10:53:46;1.80;;;1.45;;
61915;SDS011;47868;51.326;6.550;2023-02-26T10:56:19;7.43;;;1.70;;
61915;SDS011;47868;51.326;6.550;2023-02-26T10:58:45;3.70;;;1.45;;
61915;SDS011;47868;51.326;6.550;2023-02-26T11:01:18;4.38;;;1.40;;
61915;SDS011;47868;51.326;6.550;2023-02-26T11:03:49;2.72;;;1.58;;
61915;SDS011;47868;51.326;6.550;2023-02-26T11:06:19;4.47;;;1.58;;
61915;SDS011;47868;51.326;6.550;2023-02-26T11:08:48;1.85;;;1.13;;
61915;SDS011;47868;51.326;6.550;2023-02-26T11:13:59;3.03;;;1.58;;
61915;SDS011;47868;51.326;6.550;2023-02-26T11:16:25;1.88;;;1.42;;
61915;SDS011;47868;51.326;6.550;2023-02-26T11:18:54;2.40;;;1.30;;
61915;SDS011;47868;51.326;6.550;2023-02-26T11:21:22;2.47;;;1.63;;
61915;SDS011;47868;51.326;6.550;2023-02-26T11:23:57;4.40;;;1.30;;
61915;SDS011;47868;51.326;6.550;2023-02-26T11:26:33;1.42;;;1.20;;
61915;SDS011;47868;51.326;6.550;2023-02-26T11:29:00;3.40;;;1.38;;
61915;SDS011;47868;51.326;6.550;2023-02-26T11:31:26;3.25;;;1.40;;
61915;SDS011;47868;51.326;6.550;2023-02-26T11:33:53;4.00;;;1.30;;
61915;SDS011;47868;51.326;6.550;2023-02-26T11:36:29;2.53;;;1.35;;
61915;SDS011;47868;51.326;6.550;2023-02-26T11:39:18;1.65;;;1.38;;
61915;SDS011;47868;51.326;6.550;2023-02-26T11:41:47;3.30;;;1.30;;
61915;SDS011;47868;51.326;6.550;2023-02-26T11:44:15;7.35;;;1.90;;
61915;SDS011;47868;51.326;6.550;2023-02-26T11:46:45;2.80;;;1.33;;
61915;SDS011;47868;51.326;6.550;2023-02-26T11:49:23;2.95;;;1.48;;
61915;SDS011;47868;51.326;6.550;2023-02-26T11:52:03;1.60;;;1.20;;
61915;SDS011;47868;51.326;6.550;2023-02-26T11:54:33;3.28;;;1.60;;
61915;SDS011;47868;51.326;6.550;2023-02-26T11:57:02;3.20;;;1.40;;
61915;SDS011;47868;51.326;6.550;2023-02-26T11:59:32;2.65;;;1.30;;
61915;SDS011;47868;51.326;6.550;2023-02-26T12:02:04;2.17;;;1.48;;
61915;SDS011;47868;51.326;6.550;2023-02-26T12:04:38;3.80;;;2.45;;
61915;SDS011;47868;51.326;6.550;2023-02-26T12:07:13;1.40;;;1.10;;
61915;SDS011;47868;51.326;6.550;2023-02-26T12:09:39;3.50;;;1.40;;
61915;SDS011;47868;51.326;6.550;2023-02-26T12:14:40;2.78;;;1.23;;
61915;SDS011;47868;51.326;6.550;2023-02-26T12:22:41;2.38;;;1.15;;
61915;SDS011;47868;51.326;6.550;2023-02-26T12:30:38;2.00;;;1.60;;
61915;SDS011;47868;51.326;6.550;2023-02-26T12:33:09;2.63;;;1.42;;
61915;SDS011;47868;51.326;6.550;2023-02-26T12:43:09;1.75;;;1.10;;
61915;SDS011;47868;51.326;6.550;2023-02-26T12:45:41;3.55;;;1.45;;
61915;SDS011;47868;51.326;6.550;2023-02-26T13:06:31;3.50;;;1.40;;
61915;SDS011;47868;51.326;6.550;2023-02-26T13:09:02;1.90;;;1.40;;
61915;SDS011;47868;51.326;6.550;2023-02-26T13:11:45;2.13;;;1.40;;
61915;SDS011;47868;51.326;6.550;2023-02-26T13:19:50;2.55;;;1.00;;
61915;SDS011;47868;51.326;6.550;2023-02-26T13:22:19;2.05;;;1.25;;
61915;SDS011;47868;51.326;6.550;2023-02-26T13:24:53;3.25;;;1.15;;
61915;SDS011;47868;51.326;6.550;2023-02-26T13:27:21;3.55;;;1.13;;
61915;SDS011;47868;51.326;6.550;2023-02-26T13:29:55;3.55;;;1.10;;
61915;SDS011;47868;51.326;6.550;2023-02-26T13:32:25;2.40;;;1.20;;
61915;SDS011;47868;51.326;6.550;2023-02-26T13:34:56;1.75;;;1.02;;
61915;SDS011;47868;51.326;6.550;2023-02-26T13:44:52;1.33;;;1.00;;
61915;SDS011;47868;51.326;6.550;2023-02-26T13:47:45;2.00;;;1.15;;
61915;SDS011;47868;51.326;6.550;2023-02-26T13:53:03;2.00;;;1.02;;
61915;SDS011;47868;51.326;6.550;2023-02-26T13:55:43;4.20;;;1.27;;
61915;SDS011;47868;51.326;6.550;2023-02-26T14:01:06;0.95;;;0.82;;
61915;SDS011;47868;51.326;6.550;2023-02-26T14:04:07;2.58;;;1.25;;
61915;SDS011;47868;51.326;6.550;2023-02-26T14:18:12;2.63;;;1.15;;
61915;SDS011;47868;51.326;6.550;2023-02-26T14:22:41;2.22;;;1.20;;
61915;SDS011;47868;51.326;6.550;2023-02-26T14:28:16;1.25;;;0.80;;
61915;SDS011;47868;51.326;6.550;2023-02-26T14:30:38;2.10;;;1.08;;
61915;SDS011;47868;51.326;6.550;2023-02-26T14:33:08;2.72;;;1.13;;
61915;SDS011;47868;51.326;6.550;2023-02-26T14:35:41;1.92;;;1.10;;
61915;SDS011;47868;51.326;6.550;2023-02-26T14:40:45;3.25;;;1.15;;
61915;SDS011;47868;51.326;6.550;2023-02-26T14:43:15;3.03;;;1.50;;
61915;SDS011;47868;51.326;6.550;2023-02-26T14:45:43;1.60;;;1.42;;
61915;SDS011;47868;51.326;6.550;2023-02-26T14:48:14;2.38;;;1.02;;
61915;SDS011;47868;51.326;6.550;2023-02-26T14:53:51;1.38;;;1.00;;
61915;SDS011;47868;51.326;6.550;2023-02-26T14:56:23;2.25;;;1.10;;
61915;SDS011;47868;51.326;6.550;2023-02-26T15:04:54;1.48;;;1.15;;
61915;SDS011;47868;51.326;6.550;2023-02-26T15:12:51;3.38;;;1.67;;
61915;SDS011;47868;51.326;6.550;2023-02-26T15:18:24;1.20;;;1.10;;
61915;SDS011;47868;51.326;6.550;2023-02-26T15:25:54;3.42;;;1.42;;
61915;SDS011;47868;51.326;6.550;2023-02-26T15:28:25;1.85;;;1.38;;
61915;SDS011;47868;51.326;6.550;2023-02-26T15:30:51;1.67;;;1.30;;
61915;SDS011;47868;51.326;6.550;2023-02-26T15:33:18;2.33;;;1.30;;
61915;SDS011;47868;51.326;6.550;2023-02-26T15:35:46;4.40;;;1.80;;
61915;SDS011;47868;51.326;6.550;2023-02-26T15:38:12;1.25;;;1.15;;
61915;SDS011;47868;51.326;6.550;2023-02-26T15:40:38;1.85;;;1.30;;
61915;SDS011;47868;51.326;6.550;2023-02-26T15:43:05;2.25;;;1.70;;
61915;SDS011;47868;51.326;6.550;2023-02-26T15:48:31;2.30;;;1.60;;
61915;SDS011;47868;51.326;6.550;2023-02-26T15:51:01;3.15;;;1.70;;
61915;SDS011;47868;51.326;6.550;2023-02-26T15:56:01;2.88;;;2.03;;
61915;SDS011;47868;51.326;6.550;2023-02-26T16:01:02;3.70;;;2.08;;
61915;SDS011;47868;51.326;6.550;2023-02-26T16:03:30;2.25;;;1.83;;
61915;SDS011;47868;51.326;6.550;2023-02-26T16:05:58;5.63;;;2.25;;
61915;SDS011;47868;51.326;6.550;2023-02-26T16:08:24;2.25;;;1.63;;
61915;SDS011;47868;51.326;6.550;2023-02-26T16:10:51;2.78;;;2.20;;
61915;SDS011;47868;51.326;6.550;2023-02-26T16:13:36;2.22;;;1.80;;
61915;SDS011;47868;51.326;6.550;2023-02-26T16:16:04;4.30;;;2.17;;
61915;SDS011;47868;51.326;6.550;2023-02-26T16:18:48;6.78;;;2.20;;
61915;SDS011;47868;51.326;6.550;2023-02-26T16:21:19;5.38;;;2.22;;
61915;SDS011;47868;51.326;6.550;2023-02-26T16:23:53;5.53;;;1.90;;
61915;SDS011;47868;51.326;6.550;2023-02-26T16:26:25;2.85;;;1.92;;
61915;SDS011;47868;51.326;6.550;2023-02-26T16:28:57;3.92;;;1.92;;
61915;SDS011;47868;51.326;6.550;2023-02-26T16:31:26;2.85;;;1.90;;
61915;SDS011;47868;51.326;6.550;2023-02-26T16:34:06;4.43;;;1.70;;
61915;SDS011;47868;51.326;6.550;2023-02-26T16:47:40;3.20;;;2.40;;
61915;SDS011;47868;51.326;6.550;2023-02-26T16:50:12;2.90;;;2.03;;
61915;SDS011;47868;51.326;6.550;2023-02-26T16:52:45;5.53;;;2.13;;
61915;SDS011;47868;51.326;6.550;2023-02-26T16:55:18;3.53;;;2.30;;
61915;SDS011;47868;51.326;6.550;2023-02-26T16:57:51;5.25;;;2.20;;
61915;SDS011;47868;51.326;6.550;2023-02-26T17:00:20;3.53;;;1.92;;
61915;SDS011;47868;51.326;6.550;2023-02-26T17:02:55;2.97;;;2.00;;
61915;SDS011;47868;51.326;6.550;2023-02-26T17:05:35;5.30;;;2.75;;
61915;SDS011;47868;51.326;6.550;2023-02-26T17:08:08;3.75;;;2.38;;
61915;SDS011;47868;51.326;6.550;2023-02-26T17:10:49;2.72;;;1.88;;
61915;SDS011;47868;51.326;6.550;2023-02-26T17:13:26;4.68;;;2.45;;
61915;SDS011;47868;51.326;6.550;2023-02-26T17:15:53;5.47;;;2.35;;
61915;SDS011;47868;51.326;6.550;2023-02-26T17:18:23;3.03;;;2.72;;
61915;SDS011;47868;51.326;6.550;2023-02-26T17:20:49;5.38;;;3.70;;
61915;SDS011;47868;51.326;6.550;2023-02-26T17:23:15;6.85;;;3.78;;
61915;SDS011;47868;51.326;6.550;2023-02-26T17:25:46;6.45;;;4.15;;
61915;SDS011;47868;51.326;6.550;2023-02-26T17:28:25;9.60;;;4.50;;
61915;SDS011;47868;51.326;6.550;2023-02-26T17:30:52;5.22;;;3.58;;
61915;SDS011;47868;51.326;6.550;2023-02-26T17:33:18;7.15;;;2.78;;
61915;SDS011;47868;51.326;6.550;2023-02-26T17:35:44;3.47;;;2.38;;
61915;SDS011;47868;51.326;6.550;2023-02-26T17:38:10;5.10;;;2.50;;
61915;SDS011;47868;51.326;6.550;2023-02-26T17:40:38;2.92;;;2.22;;
61915;SDS011;47868;51.326;6.550;2023-02-26T17:43:09;3.53;;;3.17;;
61915;SDS011;47868;51.326;6.550;2023-02-26T17:45:35;5.68;;;4.40;;
61915;SDS011;47868;51.326;6.550;2023-02-26T17:48:04;6.15;;;3.00;;
61915;SDS011;47868;51.326;6.550;2023-02-26T17:50:46;3.72;;;2.20;;
61915;SDS011;47868;51.326;6.550;2023-02-26T17:53:18;7.30;;;3.70;;
61915;SDS011;47868;51.326;6.550;2023-02-26T17:55:45;8.30;;;3.63;;
61915;SDS011;47868;51.326;6.550;2023-02-26T18:00:51;4.70;;;3.38;;
61915;SDS011;47868;51.326;6.550;2023-02-26T18:03:17;5.35;;;3.33;;
61915;SDS011;47868;51.326;6.550;2023-02-26T18:05:44;4.35;;;3.00;;
61915;SDS011;47868;51.326;6.550;2023-02-26T18:08:18;6.28;;;4.20;;
61915;SDS011;47868;51.326;6.550;2023-02-26T18:10:58;8.35;;;6.10;;
61915;SDS011;47868;51.326;6.550;2023-02-26T18:13:25;6.03;;;4.10;;